sensor_id;sensor_type;location;lat;lon;timestamp;P1;durP1;ratioP1;P2;durP2;ratioP2
66893;SDS011;53801;55.786;49.142;2023-08-30T00:00:47;3.93;;;1.10;;
66893;SDS011;53801;55.786;49.142;2023-08-30T00:03:12;3.77;;;0.97;;
66893;SDS011;53801;55.786;49.142;2023-08-30T00:05:38;3.75;;;1.33;;
66893;SDS011;53801;55.786;49.142;2023-08-30T00:08:04;3.83;;;1.30;;
66893;SDS011;53801;55.786;49.142;2023-08-30T00:10:30;2.50;;;0.97;;
66893;SDS011;53801;55.786;49.142;2023-08-30T00:12:55;4.53;;;0.90;;
66893;SDS011;53801;55.786;49.142;2023-08-30T00:15:21;5.97;;;1.13;;
66893;SDS011;53801;55.786;49.142;2023-08-30T00:17:46;2.78;;;1.02;;
66893;SDS011;53801;55.786;49.142;2023-08-30T00:20:12;3.37;;;1.03;;
66893;SDS011;53801;55.786;49.142;2023-08-30T00:22:37;2.60;;;1.00;;
66893;SDS011;53801;55.786;49.142;2023-08-30T00:25:03;2.43;;;1.10;;
66893;SDS011;53801;55.786;49.142;2023-08-30T00:27:29;2.55;;;1.00;;
66893;SDS011;53801;55.786;49.142;2023-08-30T00:29:54;3.60;;;1.10;;
66893;SDS011;53801;55.786;49.142;2023-08-30T00:32:20;3.08;;;0.90;;
66893;SDS011;53801;55.786;49.142;2023-08-30T00:34:49;3.67;;;0.90;;
66893;SDS011;53801;55.786;49.142;2023-08-30T00:37:15;3.03;;;1.00;;
66893;SDS011;53801;55.786;49.142;2023-08-30T00:39:40;2.83;;;1.20;;
66893;SDS011;53801;55.786;49.142;2023-08-30T00:42:06;4.85;;;1.45;;
66893;SDS011;53801;55.786;49.142;2023-08-30T00:44:35;5.10;;;1.20;;
66893;SDS011;53801;55.786;49.142;2023-08-30T00:47:01;3.28;;;1.08;;
66893;SDS011;53801;55.786;49.142;2023-08-30T00:49:27;2.60;;;1.08;;
66893;SDS011;53801;55.786;49.142;2023-08-30T00:51:53;2.60;;;1.10;;
66893;SDS011;53801;55.786;49.142;2023-08-30T00:54:19;3.27;;;1.20;;
66893;SDS011;53801;55.786;49.142;2023-08-30T00:56:44;3.70;;;1.00;;
66893;SDS011;53801;55.786;49.142;2023-08-30T00:59:11;3.43;;;1.27;;
66893;SDS011;53801;55.786;49.142;2023-08-30T01:01:37;3.05;;;1.15;;
66893;SDS011;53801;55.786;49.142;2023-08-30T01:04:04;4.05;;;1.40;;
66893;SDS011;53801;55.786;49.142;2023-08-30T01:06:29;4.83;;;1.20;;
66893;SDS011;53801;55.786;49.142;2023-08-30T01:08:55;3.10;;;1.17;;
66893;SDS011;53801;55.786;49.142;2023-08-30T01:11:30;3.90;;;1.03;;
66893;SDS011;53801;55.786;49.142;2023-08-30T01:16:25;4.55;;;1.48;;
66893;SDS011;53801;55.786;49.142;2023-08-30T01:18:52;2.80;;;1.10;;
66893;SDS011;53801;55.786;49.142;2023-08-30T01:21:27;4.55;;;1.15;;
66893;SDS011;53801;55.786;49.142;2023-08-30T01:24:04;4.65;;;1.17;;
66893;SDS011;53801;55.786;49.142;2023-08-30T01:26:41;3.25;;;1.17;;
66893;SDS011;53801;55.786;49.142;2023-08-30T01:29:10;3.33;;;1.30;;
66893;SDS011;53801;55.786;49.142;2023-08-30T01:31:36;3.08;;;1.17;;
66893;SDS011;53801;55.786;49.142;2023-08-30T01:34:03;4.72;;;1.60;;
66893;SDS011;53801;55.786;49.142;2023-08-30T01:36:29;3.90;;;1.45;;
66893;SDS011;53801;55.786;49.142;2023-08-30T01:38:55;3.27;;;1.60;;
66893;SDS011;53801;55.786;49.142;2023-08-30T01:41:22;3.30;;;1.40;;
66893;SDS011;53801;55.786;49.142;2023-08-30T01:43:48;4.93;;;1.60;;
66893;SDS011;53801;55.786;49.142;2023-08-30T01:46:14;4.60;;;1.80;;
66893;SDS011;53801;55.786;49.142;2023-08-30T01:48:41;3.50;;;1.50;;
66893;SDS011;53801;55.786;49.142;2023-08-30T01:51:07;4.13;;;1.70;;
66893;SDS011;53801;55.786;49.142;2023-08-30T01:53:33;5.20;;;1.48;;
66893;SDS011;53801;55.786;49.142;2023-08-30T01:55:59;4.27;;;1.60;;
66893;SDS011;53801;55.786;49.142;2023-08-30T01:58:26;6.03;;;1.50;;
66893;SDS011;53801;55.786;49.142;2023-08-30T02:00:52;4.95;;;1.60;;
66893;SDS011;53801;55.786;49.142;2023-08-30T02:03:17;3.63;;;1.38;;
66893;SDS011;53801;55.786;49.142;2023-08-30T02:08:30;5.75;;;1.50;;
66893;SDS011;53801;55.786;49.142;2023-08-30T02:11:01;3.83;;;1.70;;
66893;SDS011;53801;55.786;49.142;2023-08-30T02:13:47;4.17;;;1.43;;
66893;SDS011;53801;55.786;49.142;2023-08-30T02:16:13;5.80;;;1.83;;
66893;SDS011;53801;55.786;49.142;2023-08-30T02:18:39;3.90;;;1.63;;
66893;SDS011;53801;55.786;49.142;2023-08-30T02:21:05;4.73;;;2.10;;
66893;SDS011;53801;55.786;49.142;2023-08-30T02:23:30;2.90;;;1.58;;
66893;SDS011;53801;55.786;49.142;2023-08-30T02:25:56;5.53;;;1.80;;
66893;SDS011;53801;55.786;49.142;2023-08-30T02:28:21;4.87;;;1.70;;
66893;SDS011;53801;55.786;49.142;2023-08-30T02:30:47;5.22;;;1.90;;
66893;SDS011;53801;55.786;49.142;2023-08-30T02:33:12;8.70;;;1.90;;
66893;SDS011;53801;55.786;49.142;2023-08-30T02:35:39;4.03;;;1.88;;
66893;SDS011;53801;55.786;49.142;2023-08-30T02:38:04;9.43;;;1.63;;
66893;SDS011;53801;55.786;49.142;2023-08-30T02:40:30;4.65;;;1.63;;
66893;SDS011;53801;55.786;49.142;2023-08-30T02:42:56;4.37;;;1.43;;
66893;SDS011;53801;55.786;49.142;2023-08-30T02:45:21;4.38;;;1.50;;
66893;SDS011;53801;55.786;49.142;2023-08-30T02:47:47;5.93;;;1.40;;
66893;SDS011;53801;55.786;49.142;2023-08-30T02:50:13;4.88;;;1.35;;
66893;SDS011;53801;55.786;49.142;2023-08-30T02:52:39;4.30;;;1.33;;
66893;SDS011;53801;55.786;49.142;2023-08-30T02:55:04;3.00;;;1.27;;
66893;SDS011;53801;55.786;49.142;2023-08-30T02:57:30;4.15;;;1.70;;
66893;SDS011;53801;55.786;49.142;2023-08-30T02:59:55;4.60;;;1.53;;
66893;SDS011;53801;55.786;49.142;2023-08-30T03:02:21;3.97;;;1.40;;
66893;SDS011;53801;55.786;49.142;2023-08-30T03:04:46;6.55;;;1.63;;
66893;SDS011;53801;55.786;49.142;2023-08-30T03:07:12;7.23;;;1.77;;
66893;SDS011;53801;55.786;49.142;2023-08-30T03:09:37;5.33;;;2.07;;
66893;SDS011;53801;55.786;49.142;2023-08-30T03:12:04;4.90;;;2.17;;
66893;SDS011;53801;55.786;49.142;2023-08-30T03:14:29;6.70;;;2.30;;
66893;SDS011;53801;55.786;49.142;2023-08-30T03:16:55;5.33;;;2.30;;
66893;SDS011;53801;55.786;49.142;2023-08-30T03:19:20;6.10;;;2.45;;
66893;SDS011;53801;55.786;49.142;2023-08-30T03:21:46;4.18;;;2.20;;
66893;SDS011;53801;55.786;49.142;2023-08-30T03:24:11;4.47;;;2.13;;
66893;SDS011;53801;55.786;49.142;2023-08-30T03:26:39;4.30;;;1.58;;
66893;SDS011;53801;55.786;49.142;2023-08-30T03:29:06;4.35;;;1.70;;
66893;SDS011;53801;55.786;49.142;2023-08-30T03:31:31;4.87;;;1.97;;
66893;SDS011;53801;55.786;49.142;2023-08-30T03:33:57;8.87;;;2.17;;
66893;SDS011;53801;55.786;49.142;2023-08-30T03:36:22;4.77;;;2.27;;
66893;SDS011;53801;55.786;49.142;2023-08-30T03:38:47;5.57;;;2.00;;
66893;SDS011;53801;55.786;49.142;2023-08-30T03:41:13;5.07;;;2.17;;
66893;SDS011;53801;55.786;49.142;2023-08-30T03:43:39;4.30;;;2.20;;
66893;SDS011;53801;55.786;49.142;2023-08-30T03:46:07;8.45;;;2.53;;
66893;SDS011;53801;55.786;49.142;2023-08-30T03:48:34;14.07;;;3.40;;
66893;SDS011;53801;55.786;49.142;2023-08-30T03:50:59;12.87;;;4.13;;
66893;SDS011;53801;55.786;49.142;2023-08-30T03:53:25;7.87;;;3.83;;
66893;SDS011;53801;55.786;49.142;2023-08-30T03:55:50;7.35;;;2.60;;
66893;SDS011;53801;55.786;49.142;2023-08-30T03:58:20;8.97;;;2.87;;
66893;SDS011;53801;55.786;49.142;2023-08-30T04:00:45;4.95;;;1.83;;
66893;SDS011;53801;55.786;49.142;2023-08-30T04:03:12;6.80;;;2.20;;
66893;SDS011;53801;55.786;49.142;2023-08-30T04:05:38;4.47;;;1.90;;
66893;SDS011;53801;55.786;49.142;2023-08-30T04:08:04;7.20;;;2.40;;
66893;SDS011;53801;55.786;49.142;2023-08-30T04:10:33;5.65;;;2.78;;
66893;SDS011;53801;55.786;49.142;2023-08-30T04:12:59;6.70;;;2.28;;
66893;SDS011;53801;55.786;49.142;2023-08-30T04:15:24;4.90;;;2.30;;
66893;SDS011;53801;55.786;49.142;2023-08-30T04:17:50;10.38;;;2.53;;
66893;SDS011;53801;55.786;49.142;2023-08-30T04:20:15;4.90;;;2.80;;
66893;SDS011;53801;55.786;49.142;2023-08-30T04:22:41;8.13;;;2.60;;
66893;SDS011;53801;55.786;49.142;2023-08-30T04:25:06;8.57;;;2.70;;
66893;SDS011;53801;55.786;49.142;2023-08-30T04:27:34;7.20;;;2.45;;
66893;SDS011;53801;55.786;49.142;2023-08-30T04:30:00;6.95;;;2.90;;
66893;SDS011;53801;55.786;49.142;2023-08-30T04:32:25;8.17;;;3.13;;
66893;SDS011;53801;55.786;49.142;2023-08-30T04:34:51;6.37;;;2.70;;
66893;SDS011;53801;55.786;49.142;2023-08-30T04:37:16;7.00;;;2.70;;
66893;SDS011;53801;55.786;49.142;2023-08-30T04:39:41;7.00;;;2.90;;
66893;SDS011;53801;55.786;49.142;2023-08-30T04:42:07;4.90;;;2.33;;
66893;SDS011;53801;55.786;49.142;2023-08-30T04:44:32;5.30;;;3.10;;
66893;SDS011;53801;55.786;49.142;2023-08-30T04:46:58;4.37;;;2.57;;
66893;SDS011;53801;55.786;49.142;2023-08-30T04:49:23;32.42;;;7.85;;
66893;SDS011;53801;55.786;49.142;2023-08-30T04:51:50;21.13;;;5.00;;
66893;SDS011;53801;55.786;49.142;2023-08-30T04:54:16;5.40;;;3.13;;
66893;SDS011;53801;55.786;49.142;2023-08-30T04:56:41;7.87;;;4.13;;
66893;SDS011;53801;55.786;49.142;2023-08-30T04:59:07;9.15;;;3.97;;
66893;SDS011;53801;55.786;49.142;2023-08-30T05:01:32;5.97;;;3.73;;
66893;SDS011;53801;55.786;49.142;2023-08-30T05:03:58;4.10;;;2.70;;
66893;SDS011;53801;55.786;49.142;2023-08-30T05:06:23;5.10;;;2.70;;
66893;SDS011;53801;55.786;49.142;2023-08-30T05:08:49;7.85;;;2.60;;
66893;SDS011;53801;55.786;49.142;2023-08-30T05:11:18;4.83;;;2.90;;
66893;SDS011;53801;55.786;49.142;2023-08-30T05:13:43;6.30;;;3.20;;
66893;SDS011;53801;55.786;49.142;2023-08-30T05:16:09;6.20;;;3.00;;
66893;SDS011;53801;55.786;49.142;2023-08-30T05:18:34;5.60;;;3.20;;
66893;SDS011;53801;55.786;49.142;2023-08-30T05:21:00;5.70;;;3.10;;
66893;SDS011;53801;55.786;49.142;2023-08-30T05:23:28;6.13;;;4.00;;
66893;SDS011;53801;55.786;49.142;2023-08-30T05:25:54;9.23;;;4.25;;
66893;SDS011;53801;55.786;49.142;2023-08-30T05:28:19;7.23;;;3.90;;
66893;SDS011;53801;55.786;49.142;2023-08-30T05:30:45;7.13;;;4.70;;
66893;SDS011;53801;55.786;49.142;2023-08-30T05:33:10;5.83;;;4.40;;
66893;SDS011;53801;55.786;49.142;2023-08-30T05:35:35;6.38;;;3.60;;
66893;SDS011;53801;55.786;49.142;2023-08-30T05:38:01;14.98;;;4.85;;
66893;SDS011;53801;55.786;49.142;2023-08-30T05:40:50;12.93;;;4.80;;
66893;SDS011;53801;55.786;49.142;2023-08-30T05:43:33;4.95;;;4.30;;
66893;SDS011;53801;55.786;49.142;2023-08-30T05:46:05;10.02;;;6.90;;
66893;SDS011;53801;55.786;49.142;2023-08-30T05:48:37;6.43;;;4.75;;
66893;SDS011;53801;55.786;49.142;2023-08-30T05:51:02;5.10;;;4.57;;
66893;SDS011;53801;55.786;49.142;2023-08-30T05:53:28;6.73;;;4.90;;
66893;SDS011;53801;55.786;49.142;2023-08-30T05:55:56;8.50;;;4.82;;
66893;SDS011;53801;55.786;49.142;2023-08-30T05:58:26;5.80;;;5.27;;
66893;SDS011;53801;55.786;49.142;2023-08-30T06:00:51;7.55;;;5.10;;
66893;SDS011;53801;55.786;49.142;2023-08-30T06:03:18;8.70;;;5.30;;
66893;SDS011;53801;55.786;49.142;2023-08-30T06:05:44;8.00;;;5.60;;
66893;SDS011;53801;55.786;49.142;2023-08-30T06:08:12;10.90;;;5.87;;
66893;SDS011;53801;55.786;49.142;2023-08-30T06:10:38;7.63;;;6.35;;
66893;SDS011;53801;55.786;49.142;2023-08-30T06:13:04;7.23;;;5.47;;
66893;SDS011;53801;55.786;49.142;2023-08-30T06:15:29;9.05;;;6.13;;
66893;SDS011;53801;55.786;49.142;2023-08-30T06:17:55;7.90;;;5.63;;
66893;SDS011;53801;55.786;49.142;2023-08-30T06:20:32;7.88;;;5.90;;
66893;SDS011;53801;55.786;49.142;2023-08-30T06:22:58;6.70;;;5.90;;
66893;SDS011;53801;55.786;49.142;2023-08-30T06:25:56;6.10;;;5.40;;
66893;SDS011;53801;55.786;49.142;2023-08-30T06:28:22;6.13;;;5.53;;
66893;SDS011;53801;55.786;49.142;2023-08-30T06:30:48;7.90;;;6.20;;
66893;SDS011;53801;55.786;49.142;2023-08-30T06:33:13;6.50;;;5.83;;
66893;SDS011;53801;55.786;49.142;2023-08-30T06:35:39;6.60;;;6.03;;
66893;SDS011;53801;55.786;49.142;2023-08-30T06:38:09;6.20;;;5.60;;
66893;SDS011;53801;55.786;49.142;2023-08-30T06:40:44;6.95;;;5.70;;
66893;SDS011;53801;55.786;49.142;2023-08-30T06:43:10;8.00;;;5.22;;
66893;SDS011;53801;55.786;49.142;2023-08-30T06:45:36;5.85;;;5.35;;
66893;SDS011;53801;55.786;49.142;2023-08-30T06:48:02;6.57;;;5.90;;
66893;SDS011;53801;55.786;49.142;2023-08-30T06:50:28;8.70;;;5.90;;
66893;SDS011;53801;55.786;49.142;2023-08-30T06:52:54;6.47;;;5.03;;
66893;SDS011;53801;55.786;49.142;2023-08-30T06:55:19;7.00;;;5.33;;
66893;SDS011;53801;55.786;49.142;2023-08-30T06:57:47;6.43;;;4.35;;
66893;SDS011;53801;55.786;49.142;2023-08-30T07:00:13;9.37;;;5.87;;
66893;SDS011;53801;55.786;49.142;2023-08-30T07:02:38;6.80;;;6.03;;
66893;SDS011;53801;55.786;49.142;2023-08-30T07:05:13;7.18;;;5.78;;
66893;SDS011;53801;55.786;49.142;2023-08-30T07:07:39;6.57;;;5.97;;
66893;SDS011;53801;55.786;49.142;2023-08-30T07:10:05;6.30;;;5.80;;
66893;SDS011;53801;55.786;49.142;2023-08-30T07:12:33;6.75;;;6.10;;
66893;SDS011;53801;55.786;49.142;2023-08-30T07:15:01;6.38;;;5.88;;
66893;SDS011;53801;55.786;49.142;2023-08-30T07:17:30;7.38;;;6.03;;
66893;SDS011;53801;55.786;49.142;2023-08-30T07:19:55;10.60;;;6.90;;
66893;SDS011;53801;55.786;49.142;2023-08-30T07:22:21;14.35;;;6.30;;
66893;SDS011;53801;55.786;49.142;2023-08-30T07:24:48;10.27;;;6.10;;
66893;SDS011;53801;55.786;49.142;2023-08-30T07:27:14;8.32;;;7.10;;
66893;SDS011;53801;55.786;49.142;2023-08-30T07:29:40;8.10;;;6.70;;
66893;SDS011;53801;55.786;49.142;2023-08-30T07:32:06;7.85;;;7.05;;
66893;SDS011;53801;55.786;49.142;2023-08-30T07:34:32;21.10;;;7.97;;
66893;SDS011;53801;55.786;49.142;2023-08-30T07:36:57;8.73;;;7.27;;
66893;SDS011;53801;55.786;49.142;2023-08-30T07:39:23;6.68;;;5.70;;
66893;SDS011;53801;55.786;49.142;2023-08-30T07:41:48;8.18;;;4.50;;
66893;SDS011;53801;55.786;49.142;2023-08-30T07:44:14;6.10;;;5.60;;
66893;SDS011;53801;55.786;49.142;2023-08-30T07:46:39;11.70;;;5.50;;
66893;SDS011;53801;55.786;49.142;2023-08-30T07:49:05;5.00;;;3.08;;
66893;SDS011;53801;55.786;49.142;2023-08-30T07:51:30;6.43;;;5.17;;
66893;SDS011;53801;55.786;49.142;2023-08-30T07:53:56;7.07;;;5.23;;
66893;SDS011;53801;55.786;49.142;2023-08-30T07:56:21;8.90;;;5.80;;
66893;SDS011;53801;55.786;49.142;2023-08-30T07:58:47;5.97;;;5.57;;
66893;SDS011;53801;55.786;49.142;2023-08-30T08:01:12;4.80;;;3.70;;
66893;SDS011;53801;55.786;49.142;2023-08-30T08:03:38;7.43;;;3.80;;
66893;SDS011;53801;55.786;49.142;2023-08-30T08:06:03;9.10;;;5.50;;
66893;SDS011;53801;55.786;49.142;2023-08-30T08:08:29;6.75;;;4.97;;
66893;SDS011;53801;55.786;49.142;2023-08-30T08:10:54;6.07;;;3.78;;
66893;SDS011;53801;55.786;49.142;2023-08-30T08:13:20;5.82;;;5.20;;
66893;SDS011;53801;55.786;49.142;2023-08-30T08:15:46;10.48;;;3.92;;
66893;SDS011;53801;55.786;49.142;2023-08-30T08:18:11;5.43;;;3.37;;
66893;SDS011;53801;55.786;49.142;2023-08-30T08:20:37;10.48;;;4.55;;
66893;SDS011;53801;55.786;49.142;2023-08-30T08:23:04;6.57;;;3.53;;
66893;SDS011;53801;55.786;49.142;2023-08-30T08:25:30;9.43;;;2.60;;
66893;SDS011;53801;55.786;49.142;2023-08-30T08:27:55;6.80;;;3.90;;
66893;SDS011;53801;55.786;49.142;2023-08-30T08:30:20;8.73;;;3.53;;
66893;SDS011;53801;55.786;49.142;2023-08-30T08:32:46;3.97;;;2.47;;
66893;SDS011;53801;55.786;49.142;2023-08-30T08:35:15;5.65;;;3.20;;
66893;SDS011;53801;55.786;49.142;2023-08-30T08:37:40;7.80;;;5.20;;
66893;SDS011;53801;55.786;49.142;2023-08-30T08:40:06;5.77;;;3.43;;
66893;SDS011;53801;55.786;49.142;2023-08-30T08:42:34;4.68;;;3.90;;
66893;SDS011;53801;55.786;49.142;2023-08-30T08:45:00;7.35;;;4.10;;
66893;SDS011;53801;55.786;49.142;2023-08-30T08:47:31;5.07;;;4.60;;
66893;SDS011;53801;55.786;49.142;2023-08-30T08:49:57;5.40;;;3.10;;
66893;SDS011;53801;55.786;49.142;2023-08-30T08:52:31;68.72;;;10.30;;
66893;SDS011;53801;55.786;49.142;2023-08-30T08:54:57;6.57;;;4.13;;
66893;SDS011;53801;55.786;49.142;2023-08-30T08:57:25;7.47;;;4.55;;
66893;SDS011;53801;55.786;49.142;2023-08-30T08:59:51;9.63;;;3.53;;
66893;SDS011;53801;55.786;49.142;2023-08-30T09:02:16;9.43;;;5.20;;
66893;SDS011;53801;55.786;49.142;2023-08-30T09:04:42;4.17;;;3.20;;
66893;SDS011;53801;55.786;49.142;2023-08-30T09:07:09;4.88;;;2.90;;
66893;SDS011;53801;55.786;49.142;2023-08-30T09:09:34;5.47;;;3.63;;
66893;SDS011;53801;55.786;49.142;2023-08-30T09:12:00;4.85;;;4.43;;
66893;SDS011;53801;55.786;49.142;2023-08-30T09:14:25;5.87;;;4.33;;
66893;SDS011;53801;55.786;49.142;2023-08-30T09:17:01;3.75;;;2.70;;
66893;SDS011;53801;55.786;49.142;2023-08-30T09:19:27;3.83;;;2.83;;
66893;SDS011;53801;55.786;49.142;2023-08-30T09:21:56;5.82;;;3.10;;
66893;SDS011;53801;55.786;49.142;2023-08-30T09:24:21;6.82;;;5.32;;
66893;SDS011;53801;55.786;49.142;2023-08-30T09:26:48;4.00;;;3.60;;
66893;SDS011;53801;55.786;49.142;2023-08-30T09:29:16;5.32;;;4.55;;
66893;SDS011;53801;55.786;49.142;2023-08-30T09:34:16;6.93;;;3.33;;
66893;SDS011;53801;55.786;49.142;2023-08-30T09:36:44;5.53;;;3.00;;
66893;SDS011;53801;55.786;49.142;2023-08-30T09:39:14;3.40;;;2.83;;
66893;SDS011;53801;55.786;49.142;2023-08-30T09:41:40;3.88;;;3.58;;
66893;SDS011;53801;55.786;49.142;2023-08-30T09:49:55;8.82;;;3.42;;
66893;SDS011;53801;55.786;49.142;2023-08-30T09:52:23;6.28;;;2.47;;
66893;SDS011;53801;55.786;49.142;2023-08-30T09:54:49;4.65;;;2.03;;
66893;SDS011;53801;55.786;49.142;2023-08-30T09:57:15;3.07;;;2.70;;
66893;SDS011;53801;55.786;49.142;2023-08-30T09:59:44;4.10;;;2.40;;
66893;SDS011;53801;55.786;49.142;2023-08-30T10:02:17;14.60;;;5.18;;
66893;SDS011;53801;55.786;49.142;2023-08-30T10:04:45;4.20;;;2.60;;
66893;SDS011;53801;55.786;49.142;2023-08-30T10:07:16;3.53;;;2.50;;
66893;SDS011;53801;55.786;49.142;2023-08-30T10:10:04;4.65;;;2.40;;
66893;SDS011;53801;55.786;49.142;2023-08-30T10:15:18;4.65;;;3.30;;
66893;SDS011;53801;55.786;49.142;2023-08-30T10:17:45;3.30;;;2.97;;
66893;SDS011;53801;55.786;49.142;2023-08-30T10:20:11;3.58;;;2.58;;
66893;SDS011;53801;55.786;49.142;2023-08-30T10:22:43;6.75;;;2.70;;
66893;SDS011;53801;55.786;49.142;2023-08-30T10:25:13;2.65;;;2.03;;
66893;SDS011;53801;55.786;49.142;2023-08-30T10:27:43;2.90;;;2.00;;
66893;SDS011;53801;55.786;49.142;2023-08-30T10:30:10;4.35;;;2.10;;
66893;SDS011;53801;55.786;49.142;2023-08-30T10:32:43;6.72;;;2.13;;
66893;SDS011;53801;55.786;49.142;2023-08-30T10:35:12;5.55;;;2.00;;
66893;SDS011;53801;55.786;49.142;2023-08-30T10:37:41;2.55;;;1.77;;
66893;SDS011;53801;55.786;49.142;2023-08-30T10:40:07;10.60;;;2.20;;
66893;SDS011;53801;55.786;49.142;2023-08-30T10:42:33;14.23;;;3.85;;
66893;SDS011;53801;55.786;49.142;2023-08-30T10:45:05;27.00;;;3.00;;
66893;SDS011;53801;55.786;49.142;2023-08-30T10:47:34;9.10;;;2.55;;
66893;SDS011;53801;55.786;49.142;2023-08-30T10:50:07;5.07;;;2.08;;
66893;SDS011;53801;55.786;49.142;2023-08-30T10:52:32;3.53;;;1.65;;
66893;SDS011;53801;55.786;49.142;2023-08-30T10:55:14;7.30;;;2.20;;
66893;SDS011;53801;55.786;49.142;2023-08-30T10:57:43;3.75;;;1.60;;
66893;SDS011;53801;55.786;49.142;2023-08-30T11:02:36;5.00;;;1.92;;
66893;SDS011;53801;55.786;49.142;2023-08-30T11:05:02;3.30;;;1.40;;
66893;SDS011;53801;55.786;49.142;2023-08-30T11:07:29;2.75;;;1.30;;
66893;SDS011;53801;55.786;49.142;2023-08-30T11:09:55;3.37;;;1.30;;
66893;SDS011;53801;55.786;49.142;2023-08-30T11:12:20;3.28;;;1.50;;
66893;SDS011;53801;55.786;49.142;2023-08-30T11:14:51;7.13;;;1.70;;
66893;SDS011;53801;55.786;49.142;2023-08-30T11:17:17;4.72;;;1.80;;
66893;SDS011;53801;55.786;49.142;2023-08-30T11:19:42;4.43;;;1.50;;
66893;SDS011;53801;55.786;49.142;2023-08-30T11:22:08;5.23;;;1.90;;
66893;SDS011;53801;55.786;49.142;2023-08-30T11:24:34;6.38;;;2.03;;
66893;SDS011;53801;55.786;49.142;2023-08-30T11:27:00;1.57;;;1.20;;
66893;SDS011;53801;55.786;49.142;2023-08-30T11:29:26;6.40;;;2.00;;
66893;SDS011;53801;55.786;49.142;2023-08-30T11:31:51;3.92;;;1.50;;
66893;SDS011;53801;55.786;49.142;2023-08-30T11:34:19;2.60;;;1.23;;
66893;SDS011;53801;55.786;49.142;2023-08-30T11:36:45;2.63;;;1.60;;
66893;SDS011;53801;55.786;49.142;2023-08-30T11:39:12;2.33;;;1.50;;
66893;SDS011;53801;55.786;49.142;2023-08-30T11:41:38;4.65;;;1.60;;
66893;SDS011;53801;55.786;49.142;2023-08-30T11:44:04;6.50;;;2.00;;
66893;SDS011;53801;55.786;49.142;2023-08-30T11:46:30;2.97;;;1.57;;
66893;SDS011;53801;55.786;49.142;2023-08-30T11:48:56;3.40;;;1.55;;
66893;SDS011;53801;55.786;49.142;2023-08-30T11:51:21;4.57;;;1.70;;
66893;SDS011;53801;55.786;49.142;2023-08-30T11:53:47;3.40;;;1.60;;
66893;SDS011;53801;55.786;49.142;2023-08-30T11:56:12;3.83;;;1.60;;
66893;SDS011;53801;55.786;49.142;2023-08-30T11:58:38;4.07;;;1.73;;
66893;SDS011;53801;55.786;49.142;2023-08-30T12:01:04;3.30;;;1.57;;
66893;SDS011;53801;55.786;49.142;2023-08-30T12:03:30;3.72;;;1.20;;
66893;SDS011;53801;55.786;49.142;2023-08-30T12:05:56;4.53;;;1.55;;
66893;SDS011;53801;55.786;49.142;2023-08-30T12:10:53;2.28;;;1.30;;
66893;SDS011;53801;55.786;49.142;2023-08-30T12:13:22;3.03;;;1.27;;
66893;SDS011;53801;55.786;49.142;2023-08-30T12:15:48;7.40;;;2.35;;
66893;SDS011;53801;55.786;49.142;2023-08-30T12:18:13;7.20;;;1.60;;
66893;SDS011;53801;55.786;49.142;2023-08-30T12:20:39;7.15;;;1.30;;
66893;SDS011;53801;55.786;49.142;2023-08-30T12:23:04;3.03;;;1.30;;
66893;SDS011;53801;55.786;49.142;2023-08-30T12:25:30;4.13;;;1.20;;
66893;SDS011;53801;55.786;49.142;2023-08-30T12:27:57;2.58;;;1.20;;
66893;SDS011;53801;55.786;49.142;2023-08-30T12:30:23;9.77;;;1.50;;
66893;SDS011;53801;55.786;49.142;2023-08-30T12:32:48;8.85;;;2.40;;
66893;SDS011;53801;55.786;49.142;2023-08-30T12:35:14;4.57;;;1.80;;
66893;SDS011;53801;55.786;49.142;2023-08-30T12:37:39;12.17;;;2.23;;
66893;SDS011;53801;55.786;49.142;2023-08-30T12:40:05;6.38;;;1.80;;
66893;SDS011;53801;55.786;49.142;2023-08-30T12:42:32;20.77;;;2.42;;
66893;SDS011;53801;55.786;49.142;2023-08-30T12:45:05;10.13;;;1.97;;
66893;SDS011;53801;55.786;49.142;2023-08-30T12:47:33;3.40;;;1.73;;
66893;SDS011;53801;55.786;49.142;2023-08-30T12:49:59;4.40;;;1.53;;
66893;SDS011;53801;55.786;49.142;2023-08-30T12:52:24;4.90;;;1.48;;
66893;SDS011;53801;55.786;49.142;2023-08-30T12:54:53;17.87;;;3.27;;
66893;SDS011;53801;55.786;49.142;2023-08-30T12:57:19;5.85;;;1.30;;
66893;SDS011;53801;55.786;49.142;2023-08-30T12:59:44;8.00;;;1.73;;
66893;SDS011;53801;55.786;49.142;2023-08-30T13:02:12;3.65;;;1.70;;
66893;SDS011;53801;55.786;49.142;2023-08-30T13:04:38;4.93;;;1.30;;
66893;SDS011;53801;55.786;49.142;2023-08-30T13:07:03;6.57;;;1.67;;
66893;SDS011;53801;55.786;49.142;2023-08-30T13:09:29;7.95;;;1.75;;
66893;SDS011;53801;55.786;49.142;2023-08-30T13:11:55;4.30;;;1.60;;
66893;SDS011;53801;55.786;49.142;2023-08-30T13:14:22;6.15;;;1.30;;
66893;SDS011;53801;55.786;49.142;2023-08-30T13:16:48;12.00;;;2.47;;
66893;SDS011;53801;55.786;49.142;2023-08-30T13:19:17;11.23;;;2.10;;
66893;SDS011;53801;55.786;49.142;2023-08-30T13:21:42;17.10;;;2.35;;
66893;SDS011;53801;55.786;49.142;2023-08-30T13:24:08;10.23;;;1.70;;
66893;SDS011;53801;55.786;49.142;2023-08-30T13:26:33;10.63;;;2.03;;
66893;SDS011;53801;55.786;49.142;2023-08-30T13:29:01;7.30;;;1.70;;
66893;SDS011;53801;55.786;49.142;2023-08-30T13:31:27;8.35;;;2.17;;
66893;SDS011;53801;55.786;49.142;2023-08-30T13:33:53;5.70;;;1.23;;
66893;SDS011;53801;55.786;49.142;2023-08-30T13:36:18;2.70;;;1.33;;
66893;SDS011;53801;55.786;49.142;2023-08-30T13:38:43;3.10;;;1.20;;
66893;SDS011;53801;55.786;49.142;2023-08-30T13:41:11;6.33;;;1.73;;
66893;SDS011;53801;55.786;49.142;2023-08-30T13:43:37;11.38;;;2.45;;
66893;SDS011;53801;55.786;49.142;2023-08-30T13:46:02;5.77;;;1.43;;
66893;SDS011;53801;55.786;49.142;2023-08-30T13:48:28;4.00;;;1.50;;
66893;SDS011;53801;55.786;49.142;2023-08-30T13:50:54;2.80;;;1.45;;
66893;SDS011;53801;55.786;49.142;2023-08-30T13:53:19;6.03;;;1.50;;
66893;SDS011;53801;55.786;49.142;2023-08-30T13:55:45;3.70;;;1.40;;
66893;SDS011;53801;55.786;49.142;2023-08-30T13:58:11;8.75;;;2.13;;
66893;SDS011;53801;55.786;49.142;2023-08-30T14:00:36;3.60;;;1.30;;
66893;SDS011;53801;55.786;49.142;2023-08-30T14:03:02;4.38;;;1.33;;
66893;SDS011;53801;55.786;49.142;2023-08-30T14:05:27;3.85;;;1.33;;
66893;SDS011;53801;55.786;49.142;2023-08-30T14:07:53;2.17;;;1.20;;
66893;SDS011;53801;55.786;49.142;2023-08-30T14:10:19;9.95;;;1.83;;
66893;SDS011;53801;55.786;49.142;2023-08-30T14:12:45;4.83;;;1.80;;
66893;SDS011;53801;55.786;49.142;2023-08-30T14:15:13;11.80;;;2.10;;
66893;SDS011;53801;55.786;49.142;2023-08-30T14:17:39;6.53;;;1.60;;
66893;SDS011;53801;55.786;49.142;2023-08-30T14:20:04;3.50;;;1.70;;
66893;SDS011;53801;55.786;49.142;2023-08-30T14:22:39;2.60;;;1.50;;
66893;SDS011;53801;55.786;49.142;2023-08-30T14:25:05;7.18;;;2.08;;
66893;SDS011;53801;55.786;49.142;2023-08-30T14:27:30;5.50;;;1.53;;
66893;SDS011;53801;55.786;49.142;2023-08-30T14:29:56;3.15;;;1.25;;
66893;SDS011;53801;55.786;49.142;2023-08-30T14:32:25;4.47;;;2.27;;
66893;SDS011;53801;55.786;49.142;2023-08-30T14:34:51;6.63;;;1.60;;
66893;SDS011;53801;55.786;49.142;2023-08-30T14:37:16;2.87;;;1.50;;
66893;SDS011;53801;55.786;49.142;2023-08-30T14:39:41;6.73;;;1.80;;
66893;SDS011;53801;55.786;49.142;2023-08-30T14:42:07;5.37;;;2.83;;
66893;SDS011;53801;55.786;49.142;2023-08-30T14:44:32;4.93;;;1.92;;
66893;SDS011;53801;55.786;49.142;2023-08-30T14:46:58;7.50;;;2.00;;
66893;SDS011;53801;55.786;49.142;2023-08-30T14:49:23;5.43;;;1.77;;
66893;SDS011;53801;55.786;49.142;2023-08-30T14:51:49;3.73;;;1.60;;